Etusivu
METAR-TAF:

METAR-TAF

Lentoasemat :

Notodden, Norja

Leveyspiiri: 59-34N, Pituuspiiri: 009-13E, korkeus merenpinnasta: 19 m

Tämänhetkinen sää

Tämä raportti tehtiin 46 minuuttia sitten, kello 10.50 UTC
Tuuli 6 kn kaakosta
Lämpötila 23°C
Kosteus 47%
Ilmanpaine 1009 hPa
Näkyvyys 10 km tai enemmän
Hajanaisia pilviä 7000 ft:n korkeudessa, Kasvava cumulus-pilvi.

METAR: ENNO 291050Z 13006KT 9999 SCT070TCU 23/11 Q1009

Aika: 13:36 (11:36 UTC)

Sääennuste

Tämä raportti tehtiin 3 tuntia ja 36 minuuttia sitten, kello 08.00 UTC
Ennuste voimassa 29. päivästä klo 09 UTC - 29. päivään klo 17 UTC
Tuuli 5 kn eri suunnista
Näkyvyys 10 km tai enemmän
Hajanaisia pilviä 3000 ft:n korkeudessa
Muutamia pilviä 4000 ft:n korkeudessa, Kasvava cumulus-pilvi.

TAF: ENNO 290800Z 2909/2917 VRB05KT 9999 SCT030 FEW040TCU

Säähavainnot ja -ennusteet yli 4000 lentoasemalta (METAR- ja TAF-raportit).

Käytössä olevat sääasemat on merkitty karttaan keltaisilla ja punaisilla pisteillä.

Aseta hiiri pisteen päälle nähdäksesi sääaseman nimen.

Klikkaa sitten nähdäksesi säähavainnot ja -ennusteet.

Kartan vaihtaminen: klikkaa mustalla rastilla varustettuja vihreitä pisteitä, niin voit zoomata sisään; viivalla varustettua vihreää pistettä, niin voit zoomata ulos tai vihreitä nuolia, niin pääset viereisille kartoille.


METAR-TAF: